createdAt,value
2022-10-30T00:00:15.493Z,122.50
2022-10-30T00:05:18.662Z,108.97
2022-10-30T00:10:21.062Z,120.20
2022-10-30T00:15:23.465Z,109.50
2022-10-30T00:20:25.801Z,117.77
2022-10-30T00:25:28.134Z,109.80
2022-10-30T00:30:30.606Z,115.00
2022-10-30T00:35:33.091Z,138.63
2022-10-30T00:40:35.726Z,117.47
2022-10-30T00:45:38.301Z,107.53
2022-10-30T00:50:40.842Z,118.13
2022-10-30T00:55:50.939Z,120.00
2022-10-30T01:00:58.135Z,111.57
2022-10-30T01:06:04.441Z,109.53
2022-10-30T01:11:09.303Z,115.10
2022-10-30T01:16:49.385Z,119.60
2022-10-30T01:21:51.812Z,114.53
2022-10-30T01:27:09.207Z,99.50
2022-10-30T01:32:50.126Z,99.53
2022-10-30T01:38:05.650Z,88.67
2022-10-30T01:43:09.411Z,98.37
2022-10-30T01:48:17.771Z,93.33
2022-10-30T01:53:25.581Z,92.97
2022-10-30T01:58:44.909Z,90.13
2022-10-30T02:03:47.974Z,109.87
2022-10-30T02:08:50.580Z,97.63
2022-10-30T02:13:56.112Z,110.50
2022-10-30T02:18:59.121Z,128.50
2022-10-30T02:24:01.877Z,121.97
2022-10-30T02:29:04.286Z,120.27
2022-10-30T02:34:06.677Z,104.80
2022-10-30T02:39:09.100Z,102.50
2022-10-30T02:44:12.806Z,84.83
2022-10-30T02:49:15.155Z,92.10
2022-10-30T02:54:17.559Z,77.90
2022-10-30T02:59:20.680Z,71.97
2022-10-30T03:04:25.015Z,84.87
2022-10-30T03:09:27.795Z,63.90
2022-10-30T03:14:30.202Z,76.63
2022-10-30T03:19:32.602Z,76.50
2022-10-30T03:24:35.033Z,71.30
2022-10-30T03:29:37.401Z,65.63
2022-10-30T03:34:40.689Z,59.70
2022-10-30T03:39:43.597Z,55.60
2022-10-30T03:44:46.056Z,55.77
2022-10-30T03:49:48.540Z,48.67
2022-10-30T03:54:55.019Z,51.83
2022-10-30T03:59:57.527Z,49.83
2022-10-30T04:05:25.925Z,53.83
2022-10-30T04:10:30.794Z,43.23
2022-10-30T04:15:37.162Z,49.77
2022-10-30T04:20:40.023Z,43.23
2022-10-30T04:25:43.116Z,51.60
2022-10-30T04:30:47.089Z,43.67
2022-10-30T04:35:51.914Z,46.93
2022-10-30T04:40:56.189Z,43.17
2022-10-30T04:46:06.889Z,47.10
2022-10-30T04:51:11.744Z,47.23
2022-10-30T04:56:14.166Z,50.40
2022-10-30T05:01:16.750Z,44.50
2022-10-30T05:06:27.804Z,42.93
2022-10-30T05:11:30.729Z,53.70
2022-10-30T05:16:33.237Z,42.67
2022-10-30T05:21:38.180Z,42.70
2022-10-30T05:26:40.655Z,46.07
2022-10-30T05:31:43.128Z,37.53
2022-10-30T05:36:51.459Z,40.40
2022-10-30T05:41:55.601Z,44.47
2022-10-30T05:47:01.587Z,49.53
2022-10-30T05:52:07.577Z,51.53
2022-10-30T05:57:10.907Z,49.37
2022-10-30T06:02:17.205Z,44.47
2022-10-30T06:07:19.826Z,44.47
2022-10-30T06:12:23.761Z,54.17
2022-10-30T06:17:52.093Z,61.40
2022-10-30T06:23:11.938Z,140.53
2022-10-30T06:28:21.843Z,158.70
2022-10-30T06:33:24.354Z,140.13
2022-10-30T06:38:27.716Z,102.10
2022-10-30T06:43:31.271Z,85.27
2022-10-30T06:48:38.441Z,93.57
2022-10-30T06:53:40.795Z,71.43
2022-10-30T06:59:15.158Z,69.10
2022-10-30T07:04:40.655Z,73.50
2022-10-30T07:09:43.937Z,103.70
2022-10-30T07:14:47.612Z,82.97
2022-10-30T07:20:10.678Z,57.43
2022-10-30T07:25:13.161Z,64.77
2022-10-30T07:30:32.075Z,88.80
2022-10-30T07:35:53.397Z,55.73
2022-10-30T07:41:14.294Z,61.93
2022-10-30T07:46:25.213Z,46.63
2022-10-30T07:51:56.681Z,40.90
2022-10-30T07:56:59.093Z,48.50
2022-10-30T08:02:20.148Z,57.73
2022-10-30T08:07:46.714Z,51.60
2022-10-30T08:12:50.014Z,46.87
2022-10-30T08:17:53.457Z,54.80
2022-10-30T08:22:58.320Z,49.83
2022-10-30T08:28:06.707Z,49.53
2022-10-30T08:33:16.455Z,46.67
2022-10-30T08:38:37.610Z,51.17
2022-10-30T08:43:51.420Z,43.47
2022-10-30T08:48:55.582Z,35.60
2022-10-30T08:53:59.084Z,41.70
2022-10-30T08:59:01.574Z,37.80
2022-10-30T09:04:04.436Z,42.63
2022-10-30T09:09:24.838Z,46.40
2022-10-30T09:14:31.464Z,41.57
2022-10-30T09:19:34.178Z,38.57
2022-10-30T09:24:37.745Z,41.63
2022-10-30T09:29:58.454Z,39.27
2022-10-30T09:35:07.512Z,45.30
2022-10-30T09:40:38.374Z,45.50
2022-10-30T09:46:02.100Z,43.70
2022-10-30T09:51:31.681Z,46.73
2022-10-30T09:56:41.831Z,37.93
2022-10-30T10:01:54.083Z,36.67
2022-10-30T10:07:16.292Z,44.27
2022-10-30T10:12:43.848Z,43.27
2022-10-30T10:17:47.135Z,39.63
2022-10-30T10:22:50.756Z,38.80
2022-10-30T10:28:08.129Z,40.20
2022-10-30T10:33:57.680Z,39.00
2022-10-30T10:39:15.308Z,35.37
2022-10-30T10:44:20.554Z,43.00
2022-10-30T10:49:39.210Z,32.43
2022-10-30T10:54:46.049Z,34.07
2022-10-30T10:59:53.348Z,34.33
2022-10-30T11:05:02.223Z,33.43
2022-10-30T11:10:13.383Z,34.53
2022-10-30T11:15:25.955Z,36.77
2022-10-30T11:20:40.827Z,31.10
2022-10-30T11:25:43.298Z,38.57
2022-10-30T11:30:45.563Z,34.10
2022-10-30T11:35:47.830Z,39.27
2022-10-30T11:40:53.022Z,45.20
2022-10-30T11:45:55.522Z,35.63
2022-10-30T11:51:03.181Z,41.60
2022-10-30T11:56:15.410Z,40.67
2022-10-30T12:01:25.820Z,33.70
2022-10-30T12:06:30.139Z,39.27
2022-10-30T12:11:37.477Z,43.10
2022-10-30T12:16:46.623Z,44.33
2022-10-30T12:21:54.520Z,38.83
2022-10-30T12:27:00.978Z,37.67
2022-10-30T12:32:08.120Z,31.83
2022-10-30T12:37:20.431Z,34.30
2022-10-30T12:42:24.945Z,35.93
2022-10-30T12:47:34.783Z,129.03
2022-10-30T12:52:55.358Z,42.40
2022-10-30T12:58:26.225Z,94.80
2022-10-30T13:04:02.608Z,45.83
2022-10-30T13:09:18.835Z,41.50
2022-10-30T13:14:28.244Z,40.50
2022-10-30T13:19:30.731Z,40.33
2022-10-30T13:24:39.025Z,34.17
2022-10-30T13:30:01.815Z,39.73
2022-10-30T13:35:31.805Z,39.17
2022-10-30T13:40:49.817Z,39.50
2022-10-30T13:46:13.261Z,30.10
2022-10-30T13:51:37.330Z,28.13
2022-10-30T13:56:42.362Z,35.43
2022-10-30T14:02:06.785Z,30.07
2022-10-30T14:07:30.626Z,38.47
2022-10-30T14:12:55.842Z,30.77
2022-10-30T14:18:13.485Z,38.73
2022-10-30T14:23:20.498Z,40.57
2022-10-30T14:28:22.873Z,58.03
2022-10-30T14:33:45.993Z,53.53
2022-10-30T14:39:09.274Z,44.87
2022-10-30T14:44:43.453Z,58.67
2022-10-30T14:49:57.692Z,54.37
2022-10-30T14:55:03.010Z,49.33
2022-10-30T15:00:35.000Z,43.87
2022-10-30T15:05:45.138Z,43.90
2022-10-30T15:11:24.841Z,45.07
2022-10-30T15:16:29.422Z,44.00
2022-10-30T15:21:35.533Z,46.33
2022-10-30T15:26:39.658Z,46.37
2022-10-30T15:31:41.935Z,44.77
2022-10-30T15:36:44.679Z,48.50
2022-10-30T15:41:59.753Z,51.43
2022-10-30T15:47:04.072Z,46.60
2022-10-30T15:52:17.157Z,45.80
2022-10-30T15:57:57.432Z,46.53
2022-10-30T16:03:27.775Z,72.47
2022-10-30T16:08:30.040Z,47.23
2022-10-30T16:13:32.469Z,42.97
2022-10-30T16:18:36.379Z,46.23
2022-10-30T16:23:47.105Z,41.00
2022-10-30T16:28:49.387Z,50.47
2022-10-30T16:33:52.440Z,50.40
2022-10-30T16:38:55.977Z,57.67
2022-10-30T16:44:18.272Z,51.90
2022-10-30T16:49:23.883Z,63.03
2022-10-30T16:54:38.394Z,75.60
2022-10-30T16:59:47.157Z,109.27
2022-10-30T17:04:57.025Z,187.63
2022-10-30T17:10:00.681Z,372.37
2022-10-30T17:15:12.712Z,76.03
2022-10-30T17:20:22.669Z,120.13
2022-10-30T17:25:38.170Z,276.33
2022-10-30T17:30:42.945Z,282.80
2022-10-30T17:35:45.269Z,220.80
2022-10-30T17:40:47.778Z,195.13
2022-10-30T17:45:50.069Z,197.53
2022-10-30T17:50:52.450Z,190.40
2022-10-30T17:56:29.817Z,158.00
2022-10-30T18:01:32.167Z,114.63
2022-10-30T18:06:34.488Z,119.00
2022-10-30T18:11:37.224Z,118.83
2022-10-30T18:16:39.523Z,166.83
2022-10-30T18:21:41.842Z,157.03
2022-10-30T18:26:45.230Z,161.50
2022-10-30T18:31:47.603Z,160.40
2022-10-30T18:36:50.212Z,137.53
2022-10-30T18:41:53.743Z,156.70
2022-10-30T18:47:00.170Z,112.90
2022-10-30T18:52:05.147Z,137.87
2022-10-30T18:57:07.421Z,142.57
2022-10-30T19:02:24.006Z,175.50
2022-10-30T19:07:26.382Z,166.20
2022-10-30T19:12:28.764Z,167.73
2022-10-30T19:17:31.131Z,156.60
2022-10-30T19:22:33.498Z,186.60
2022-10-30T19:27:35.833Z,131.70
2022-10-30T19:32:38.222Z,408.20
2022-10-30T19:37:41.557Z,275.63
2022-10-30T19:42:44.385Z,231.83
2022-10-30T19:47:51.402Z,226.37
2022-10-30T19:52:56.168Z,166.47
2022-10-30T19:57:59.885Z,212.67
2022-10-30T20:03:04.091Z,229.13
2022-10-30T20:08:10.886Z,233.73
2022-10-30T20:13:13.206Z,204.53
2022-10-30T20:18:16.939Z,195.67
2022-10-30T20:23:20.454Z,180.80
2022-10-30T20:28:45.163Z,181.17
2022-10-30T20:33:47.527Z,151.60
2022-10-30T20:38:49.816Z,166.43
2022-10-30T20:43:52.267Z,149.87
2022-10-30T20:48:55.237Z,155.27
2022-10-30T20:53:57.554Z,152.63
2022-10-30T20:58:59.831Z,105.30
2022-10-30T21:04:02.469Z,215.27
2022-10-30T21:09:04.925Z,109.20
2022-10-30T21:14:07.223Z,94.27
2022-10-30T21:19:09.530Z,99.73
2022-10-30T21:24:11.906Z,84.33
2022-10-30T21:29:14.298Z,64.83
2022-10-30T21:34:17.449Z,76.17
2022-10-30T21:39:19.708Z,72.63
2022-10-30T21:44:22.045Z,69.07
2022-10-30T21:49:24.373Z,572.03
2022-10-30T21:54:26.804Z,473.40
2022-10-30T21:59:29.080Z,313.03
2022-10-30T22:04:32.964Z,418.00
2022-10-30T22:09:35.266Z,405.70
2022-10-30T22:14:37.537Z,376.83
2022-10-30T22:19:39.909Z,260.50
2022-10-30T22:24:42.259Z,197.40
2022-10-30T22:29:44.550Z,410.43
2022-10-30T22:34:46.827Z,267.40
2022-10-30T22:39:49.108Z,149.50
2022-10-30T22:44:51.452Z,184.03
2022-10-30T22:49:53.723Z,245.40
2022-10-30T22:54:55.980Z,165.80
2022-10-30T22:59:58.334Z,231.07
2022-10-30T23:05:00.621Z,162.07
2022-10-30T23:10:02.944Z,120.93
2022-10-30T23:15:05.852Z,156.43
2022-10-30T23:20:08.782Z,207.20
2022-10-30T23:25:11.101Z,215.73
2022-10-30T23:30:13.578Z,270.27
2022-10-30T23:35:15.869Z,192.40
2022-10-30T23:40:18.156Z,197.33
2022-10-30T23:45:21.852Z,223.83
2022-10-30T23:50:24.123Z,160.60
2022-10-30T23:55:26.810Z,134.30
